createdAt,value
2023-05-12T00:01:00.685Z,8.66
2023-05-12T00:04:03.209Z,8.68
2023-05-12T00:07:07.172Z,8.60
2023-05-12T00:10:09.914Z,8.57
2023-05-12T00:13:12.337Z,8.50
2023-05-12T00:16:15.952Z,8.58
2023-05-12T00:19:22.131Z,8.55
2023-05-12T00:22:24.559Z,8.52
2023-05-12T00:25:26.888Z,8.52
2023-05-12T00:28:29.350Z,8.48
2023-05-12T00:31:31.897Z,8.43
2023-05-12T00:34:34.487Z,8.44
2023-05-12T00:37:36.861Z,8.45
2023-05-12T00:40:39.680Z,8.42
2023-05-12T00:43:42.676Z,8.48
2023-05-12T00:46:45.033Z,8.51
2023-05-12T00:49:47.325Z,8.55
2023-05-12T00:52:50.242Z,8.57
2023-05-12T00:55:53.758Z,8.61
2023-05-12T00:58:56.068Z,8.56
2023-05-12T01:01:58.530Z,8.50
2023-05-12T01:05:02.036Z,8.50
2023-05-12T01:08:04.853Z,8.50
2023-05-12T01:11:07.218Z,8.45
2023-05-12T01:14:09.934Z,8.35
2023-05-12T01:17:13.946Z,8.32
2023-05-12T01:20:18.344Z,8.28
2023-05-12T01:23:21.045Z,8.15
2023-05-12T01:26:23.658Z,8.11
2023-05-12T01:29:26.734Z,8.09
2023-05-12T01:32:30.628Z,8.04
2023-05-12T01:35:33.789Z,8.01
2023-05-12T01:38:38.226Z,7.92
2023-05-12T01:41:41.180Z,7.97
2023-05-12T01:44:44.437Z,7.94
2023-05-12T01:47:46.962Z,7.92
2023-05-12T01:50:49.380Z,7.92
2023-05-12T01:53:55.883Z,7.88
2023-05-12T01:56:58.563Z,7.90
2023-05-12T02:00:01.475Z,7.85
2023-05-12T02:03:05.016Z,7.55
2023-05-12T02:06:08.206Z,7.75
2023-05-12T02:09:11.601Z,7.67
2023-05-12T02:12:14.202Z,7.69
2023-05-12T02:15:16.759Z,7.60
2023-05-12T02:18:21.835Z,7.57
2023-05-12T02:21:24.365Z,7.59
2023-05-12T02:24:28.879Z,7.60
2023-05-12T02:27:32.643Z,7.61
2023-05-12T02:30:35.450Z,7.53
2023-05-12T02:33:38.991Z,7.56
2023-05-12T02:36:41.416Z,7.55
2023-05-12T02:39:43.761Z,7.54
2023-05-12T02:42:46.124Z,7.53
2023-05-12T02:45:48.548Z,7.55
2023-05-12T02:48:51.025Z,7.52
2023-05-12T02:51:55.282Z,7.57
2023-05-12T02:54:57.747Z,7.51
2023-05-12T02:58:00.108Z,7.51
2023-05-12T03:01:10.161Z,7.61
2023-05-12T03:04:13.886Z,7.59
2023-05-12T03:07:16.649Z,7.70
2023-05-12T03:10:19.701Z,7.74
2023-05-12T03:13:22.550Z,7.83
2023-05-12T03:16:25.973Z,8.07
2023-05-12T03:19:28.553Z,8.02
2023-05-12T03:22:31.205Z,8.72
2023-05-12T03:25:35.183Z,8.99
2023-05-12T03:28:37.765Z,9.00
2023-05-12T03:31:40.227Z,9.43
2023-05-12T03:34:42.693Z,9.88
2023-05-12T03:37:45.096Z,10.16
2023-05-12T03:40:52.828Z,11.00
2023-05-12T03:43:56.232Z,10.47
2023-05-12T03:46:58.620Z,10.58
2023-05-12T03:50:01.692Z,11.73
2023-05-12T03:53:05.108Z,12.18
2023-05-12T03:56:09.962Z,12.52
2023-05-12T03:59:12.426Z,12.81
2023-05-12T04:02:14.948Z,12.99
2023-05-12T04:05:17.471Z,13.26
2023-05-12T04:08:19.846Z,13.53
2023-05-12T04:11:22.387Z,14.02
2023-05-12T04:14:35.327Z,14.10
2023-05-12T04:17:42.388Z,14.49
2023-05-12T04:20:45.616Z,14.75
2023-05-12T04:23:48.034Z,14.88
2023-05-12T04:26:50.633Z,15.14
2023-05-12T04:29:53.016Z,15.07
2023-05-12T04:32:57.274Z,15.40
2023-05-12T04:35:59.965Z,15.48
2023-05-12T04:39:02.559Z,15.72
2023-05-12T04:42:05.209Z,15.73
2023-05-12T04:45:09.719Z,16.04
2023-05-12T04:48:12.510Z,16.01
2023-05-12T04:51:16.863Z,15.76
2023-05-12T04:54:19.376Z,16.03
2023-05-12T04:57:21.854Z,15.97
2023-05-12T05:00:24.456Z,16.52
2023-05-12T05:03:27.353Z,16.55
2023-05-12T05:06:30.928Z,16.49
2023-05-12T05:09:36.433Z,16.54
2023-05-12T05:12:39.331Z,16.65
2023-05-12T05:15:42.684Z,16.56
2023-05-12T05:18:48.152Z,16.63
2023-05-12T05:21:50.846Z,16.97
2023-05-12T05:24:53.226Z,16.81
2023-05-12T05:27:56.123Z,16.20
2023-05-12T05:30:58.561Z,16.38
2023-05-12T05:34:01.218Z,16.71
2023-05-12T05:37:04.248Z,16.06
2023-05-12T05:40:07.873Z,16.41
2023-05-12T05:43:10.355Z,16.96
2023-05-12T05:46:12.854Z,16.96
2023-05-12T05:49:15.802Z,17.10
2023-05-12T05:52:18.404Z,17.63
2023-05-12T05:55:21.469Z,17.63
2023-05-12T05:58:25.233Z,17.67
2023-05-12T06:01:27.546Z,17.84
2023-05-12T06:04:30.268Z,17.96
2023-05-12T06:07:33.944Z,18.25
2023-05-12T06:10:36.330Z,17.94
2023-05-12T06:13:38.661Z,18.24
2023-05-12T06:16:41.117Z,18.35
2023-05-12T06:19:47.800Z,18.16
2023-05-12T06:22:50.570Z,18.07
2023-05-12T06:25:53.215Z,17.68
2023-05-12T06:28:56.363Z,18.15
2023-05-12T06:31:58.833Z,18.22
2023-05-12T06:35:01.202Z,18.54
2023-05-12T06:38:03.635Z,18.91
2023-05-12T06:41:05.988Z,18.78
2023-05-12T06:44:12.771Z,18.33
2023-05-12T06:47:15.188Z,18.79
2023-05-12T06:50:17.680Z,18.57
2023-05-12T06:53:19.975Z,18.16
2023-05-12T06:56:23.356Z,18.13
2023-05-12T06:59:27.769Z,17.63
2023-05-12T07:02:30.921Z,17.50
2023-05-12T07:05:33.521Z,17.26
2023-05-12T07:08:36.002Z,17.34
2023-05-12T07:11:38.388Z,17.19
2023-05-12T07:14:40.754Z,17.21
2023-05-12T07:17:43.152Z,17.36
2023-05-12T07:20:46.741Z,17.50
2023-05-12T07:23:49.217Z,17.40
2023-05-12T07:26:52.169Z,17.50
2023-05-12T07:29:54.552Z,17.59
2023-05-12T07:32:57.895Z,17.63
2023-05-12T07:36:00.290Z,17.22
2023-05-12T07:39:02.716Z,17.34
2023-05-12T07:42:05.362Z,17.18
2023-05-12T07:45:08.280Z,17.53
2023-05-12T07:48:13.513Z,17.20
2023-05-12T07:51:15.840Z,17.08
2023-05-12T07:54:19.590Z,17.24
2023-05-12T07:57:21.930Z,17.54
2023-05-12T08:00:24.408Z,17.67
2023-05-12T08:03:27.345Z,17.57
2023-05-12T08:06:30.045Z,17.51
2023-05-12T08:09:32.531Z,17.71
2023-05-12T08:12:34.916Z,17.79
2023-05-12T08:15:37.405Z,17.84
2023-05-12T08:18:39.959Z,17.91
2023-05-12T08:21:42.319Z,17.88
2023-05-12T08:24:44.811Z,17.72
2023-05-12T08:27:47.197Z,17.86
2023-05-12T08:30:49.627Z,17.99
2023-05-12T08:34:02.718Z,18.08
2023-05-12T08:37:12.388Z,17.96
2023-05-12T08:40:18.202Z,18.15
2023-05-12T08:43:30.209Z,18.57
2023-05-12T08:46:32.782Z,18.22
2023-05-12T08:49:36.839Z,18.71
2023-05-12T08:52:39.468Z,18.56
2023-05-12T08:55:58.367Z,18.12
2023-05-12T08:59:10.120Z,18.35
2023-05-12T09:02:12.380Z,18.64
2023-05-12T09:05:14.785Z,18.37
2023-05-12T09:08:17.240Z,18.43
2023-05-12T09:11:22.099Z,18.41
2023-05-12T09:14:26.245Z,18.29
2023-05-12T09:17:28.756Z,18.42
2023-05-12T09:20:32.251Z,18.27
2023-05-12T09:23:34.841Z,18.31
2023-05-12T09:26:56.123Z,18.71
2023-05-12T09:29:59.909Z,18.85
2023-05-12T09:33:12.529Z,19.04
2023-05-12T09:36:24.713Z,19.00
2023-05-12T09:39:28.584Z,19.21
2023-05-12T09:42:32.644Z,19.40
2023-05-12T09:45:36.846Z,19.68
2023-05-12T09:48:39.369Z,19.81
2023-05-12T09:51:41.999Z,19.07
2023-05-12T09:54:44.340Z,19.08
2023-05-12T09:57:47.425Z,18.29
2023-05-12T10:01:12.977Z,18.40
2023-05-12T10:04:13.097Z,18.49
2023-05-12T10:07:17.521Z,18.50
2023-05-12T10:10:20.730Z,18.71
2023-05-12T10:13:23.809Z,18.28
2023-05-12T10:16:29.040Z,18.25
2023-05-12T10:19:31.697Z,18.42
2023-05-12T10:22:35.273Z,18.34
2023-05-12T10:25:37.834Z,18.44
2023-05-12T10:28:40.158Z,18.91
2023-05-12T10:31:45.408Z,18.89
2023-05-12T10:34:48.331Z,19.04
2023-05-12T10:37:50.930Z,19.40
2023-05-12T10:41:01.380Z,19.42
2023-05-12T10:44:03.814Z,19.71
2023-05-12T10:47:15.568Z,19.89
2023-05-12T10:50:30.688Z,19.83
2023-05-12T10:53:48.241Z,19.96
2023-05-12T10:56:53.019Z,19.77
2023-05-12T11:00:00.787Z,19.53
2023-05-12T11:03:09.938Z,19.84
2023-05-12T11:06:19.885Z,19.95
2023-05-12T11:09:22.603Z,19.91
2023-05-12T11:12:26.868Z,20.07
2023-05-12T11:15:30.586Z,19.50
2023-05-12T11:18:32.904Z,19.65
2023-05-12T11:21:36.055Z,19.49
2023-05-12T11:24:40.822Z,19.83
2023-05-12T11:27:53.445Z,19.46
2023-05-12T11:30:55.937Z,19.60
2023-05-12T11:34:13.206Z,19.79
2023-05-12T11:37:16.053Z,20.10
2023-05-12T11:40:20.695Z,19.94
2023-05-12T11:43:23.174Z,19.54
2023-05-12T11:46:29.526Z,19.38
2023-05-12T11:49:32.946Z,19.71
2023-05-12T11:52:35.300Z,20.07
2023-05-12T11:55:37.719Z,20.10
2023-05-12T11:58:40.197Z,19.62
2023-05-12T12:01:46.944Z,20.09
2023-05-12T12:04:49.390Z,20.02
2023-05-12T12:07:52.000Z,20.29
2023-05-12T12:10:54.378Z,20.06
2023-05-12T12:13:57.856Z,20.23
2023-05-12T12:17:00.516Z,20.35
2023-05-12T12:20:03.466Z,19.85
2023-05-12T12:23:05.839Z,20.08
2023-05-12T12:26:08.196Z,20.11
2023-05-12T12:29:10.714Z,20.08
2023-05-12T12:32:13.191Z,20.18
2023-05-12T12:35:15.788Z,20.57
2023-05-12T12:38:18.257Z,20.75
2023-05-12T12:41:20.865Z,20.42
2023-05-12T12:44:23.306Z,20.57
2023-05-12T12:47:25.870Z,20.63
2023-05-12T12:50:28.376Z,20.70
2023-05-12T12:53:30.847Z,20.76
2023-05-12T12:56:33.147Z,20.96
2023-05-12T12:59:35.668Z,20.94
2023-05-12T13:02:38.794Z,20.64
2023-05-12T13:05:41.609Z,20.75
2023-05-12T13:08:44.015Z,20.83
2023-05-12T13:11:47.029Z,20.76
2023-05-12T13:14:49.583Z,20.76
2023-05-12T13:17:52.392Z,21.09
2023-05-12T13:20:55.352Z,20.52
2023-05-12T13:23:57.733Z,20.24
2023-05-12T13:27:00.339Z,20.27
2023-05-12T13:30:05.007Z,20.12
2023-05-12T13:33:07.457Z,20.10
2023-05-12T13:36:09.889Z,20.54
2023-05-12T13:39:12.812Z,20.88
2023-05-12T13:42:15.122Z,21.37
2023-05-12T13:45:18.350Z,21.29
2023-05-12T13:48:21.984Z,20.88
2023-05-12T13:51:24.426Z,20.85
2023-05-12T13:54:26.735Z,20.40
2023-05-12T13:57:29.122Z,20.38
2023-05-12T14:00:31.523Z,20.78
2023-05-12T14:03:34.737Z,20.92
2023-05-12T14:06:37.101Z,20.99
2023-05-12T14:09:39.750Z,20.70
2023-05-12T14:12:42.960Z,20.49
2023-05-12T14:15:49.277Z,21.13
2023-05-12T14:18:52.744Z,21.27
2023-05-12T14:21:55.262Z,21.18
2023-05-12T14:24:57.925Z,21.18
2023-05-12T14:28:00.381Z,21.41
2023-05-12T14:31:03.641Z,21.40
2023-05-12T14:34:06.002Z,21.38
2023-05-12T14:37:08.350Z,21.53
2023-05-12T14:40:12.827Z,21.50
2023-05-12T14:43:15.928Z,21.28
2023-05-12T14:46:18.302Z,21.29
2023-05-12T14:49:22.114Z,21.00
2023-05-12T14:52:24.608Z,21.01
2023-05-12T14:55:28.362Z,21.13
2023-05-12T14:58:30.991Z,21.02
2023-05-12T15:01:33.568Z,20.57
2023-05-12T15:04:35.927Z,20.18
2023-05-12T15:07:38.632Z,20.10
2023-05-12T15:10:41.024Z,20.27
2023-05-12T15:13:43.427Z,20.31
2023-05-12T15:16:46.222Z,20.30
2023-05-12T15:19:48.687Z,20.33
2023-05-12T15:22:52.371Z,20.54
2023-05-12T15:25:54.629Z,20.59
2023-05-12T15:28:56.974Z,20.40
2023-05-12T15:31:59.664Z,19.83
2023-05-12T15:35:02.078Z,19.89
2023-05-12T15:38:04.619Z,19.88
2023-05-12T15:41:06.925Z,20.20
2023-05-12T15:44:09.462Z,20.23
2023-05-12T15:47:11.770Z,20.35
2023-05-12T15:50:19.772Z,20.58
2023-05-12T15:53:22.435Z,20.36
2023-05-12T15:56:24.919Z,20.43
2023-05-12T15:59:27.311Z,20.43
2023-05-12T16:02:29.709Z,20.46
2023-05-12T16:05:34.196Z,20.40
2023-05-12T16:08:36.498Z,20.37
2023-05-12T16:11:38.927Z,20.41
2023-05-12T16:14:41.322Z,20.12
2023-05-12T16:17:43.727Z,20.17
2023-05-12T16:20:47.559Z,20.36
2023-05-12T16:23:49.928Z,20.41
2023-05-12T16:26:52.179Z,20.16
2023-05-12T16:29:55.037Z,20.18
2023-05-12T16:32:57.629Z,20.16
2023-05-12T16:36:00.032Z,20.01
2023-05-12T16:39:02.953Z,19.99
2023-05-12T16:42:06.103Z,19.79
2023-05-12T16:45:11.077Z,19.71
2023-05-12T16:48:13.599Z,19.86
2023-05-12T16:51:16.048Z,19.65
2023-05-12T16:54:18.663Z,19.46
2023-05-12T16:57:21.211Z,19.37
2023-05-12T17:00:23.814Z,19.29
2023-05-12T17:03:26.203Z,19.15
2023-05-12T17:06:32.053Z,19.19
2023-05-12T17:09:34.316Z,19.04
2023-05-12T17:12:37.111Z,18.87
2023-05-12T17:15:40.779Z,18.55
2023-05-12T17:21:49.041Z,18.15
2023-05-12T17:24:51.548Z,18.19
2023-05-12T17:27:55.002Z,18.15
2023-05-12T17:30:58.461Z,18.04
2023-05-12T17:34:01.383Z,17.88
2023-05-12T17:37:06.145Z,17.96
2023-05-12T17:40:09.853Z,17.82
2023-05-12T17:43:13.625Z,17.62
2023-05-12T17:46:17.003Z,17.55
2023-05-12T17:49:19.790Z,17.29
2023-05-12T17:52:22.407Z,17.35
2023-05-12T17:55:25.504Z,17.12
2023-05-12T17:58:29.969Z,16.94
2023-05-12T18:01:35.525Z,16.79
2023-05-12T18:04:38.553Z,16.55
2023-05-12T18:07:41.663Z,16.41
2023-05-12T18:10:44.774Z,16.27
2023-05-12T18:13:47.655Z,16.15
2023-05-12T18:16:50.229Z,16.00
2023-05-12T18:19:52.911Z,15.84
2023-05-12T18:22:55.390Z,15.63
2023-05-12T18:25:58.142Z,15.38
2023-05-12T18:29:00.900Z,15.34
2023-05-12T18:32:03.930Z,15.29
2023-05-12T18:35:07.337Z,15.18
2023-05-12T18:38:09.650Z,15.28
2023-05-12T18:41:12.585Z,15.27
2023-05-12T18:44:14.937Z,15.20
2023-05-12T18:47:17.495Z,15.09
2023-05-12T18:50:20.576Z,14.96
2023-05-12T18:53:23.337Z,14.81
2023-05-12T18:56:26.122Z,14.69
2023-05-12T18:59:29.713Z,14.45
2023-05-12T19:02:33.758Z,14.38
2023-05-12T19:05:37.240Z,14.27
2023-05-12T19:08:42.066Z,14.38
2023-05-12T19:11:46.564Z,14.21
2023-05-12T19:14:50.108Z,14.11
2023-05-12T19:17:53.886Z,14.01
2023-05-12T19:20:57.864Z,14.23
2023-05-12T19:24:02.787Z,14.27
2023-05-12T19:27:05.962Z,14.23
2023-05-12T19:30:08.896Z,14.05
2023-05-12T19:33:11.451Z,14.05
2023-05-12T19:36:14.164Z,13.90
2023-05-12T19:39:17.032Z,13.83
2023-05-12T19:42:20.058Z,13.82
2023-05-12T19:45:23.599Z,13.64
2023-05-12T19:48:26.598Z,13.57
2023-05-12T19:51:30.131Z,13.42
2023-05-12T19:54:33.606Z,13.27
2023-05-12T19:57:38.030Z,13.26
2023-05-12T20:00:41.385Z,13.10
2023-05-12T20:03:45.175Z,12.98
2023-05-12T20:06:48.034Z,12.80
2023-05-12T20:09:50.404Z,12.64
2023-05-12T20:12:53.588Z,12.66
2023-05-12T20:15:57.157Z,12.37
2023-05-12T20:19:02.502Z,12.14
2023-05-12T20:22:06.550Z,11.87
2023-05-12T20:25:12.703Z,11.98
2023-05-12T20:28:16.976Z,12.30
2023-05-12T20:31:20.169Z,12.23
2023-05-12T20:34:22.625Z,12.06
2023-05-12T20:37:25.012Z,12.00
2023-05-12T20:40:27.572Z,12.12
2023-05-12T20:43:29.924Z,12.17
2023-05-12T20:46:33.942Z,12.13
2023-05-12T20:49:37.464Z,12.18
2023-05-12T20:52:41.354Z,12.10
2023-05-12T20:55:44.023Z,11.70
2023-05-12T20:58:46.426Z,11.67
2023-05-12T21:01:48.822Z,11.69
2023-05-12T21:04:51.563Z,11.75
2023-05-12T21:07:53.940Z,11.80
2023-05-12T21:10:56.566Z,11.80
2023-05-12T21:13:58.974Z,11.75
2023-05-12T21:17:01.578Z,11.44
2023-05-12T21:20:04.401Z,11.62
2023-05-12T21:23:09.535Z,11.56
2023-05-12T21:26:12.726Z,11.69
2023-05-12T21:29:15.084Z,11.74
2023-05-12T21:32:17.496Z,11.76
2023-05-12T21:35:20.114Z,11.74
2023-05-12T21:38:22.562Z,11.52
2023-05-12T21:41:25.083Z,11.36
2023-05-12T21:44:27.530Z,11.35
2023-05-12T21:47:29.942Z,11.17
2023-05-12T21:50:32.510Z,11.23
2023-05-12T21:53:35.073Z,11.24
2023-05-12T21:56:37.669Z,11.28
2023-05-12T21:59:40.161Z,11.21
2023-05-12T22:02:43.278Z,11.29
2023-05-12T22:05:45.763Z,11.38
2023-05-12T22:08:48.334Z,11.38
2023-05-12T22:11:50.728Z,11.22
2023-05-12T22:14:53.318Z,11.05
2023-05-12T22:17:55.704Z,10.90
2023-05-12T22:20:58.203Z,10.87
2023-05-12T22:24:00.603Z,10.63
2023-05-12T22:27:03.065Z,10.68
2023-05-12T22:30:06.121Z,10.59
2023-05-12T22:33:08.880Z,10.40
2023-05-12T22:36:11.611Z,10.40
2023-05-12T22:39:14.804Z,10.45
2023-05-12T22:42:17.213Z,10.18
2023-05-12T22:45:20.509Z,10.00
2023-05-12T22:48:23.563Z,9.93
2023-05-12T22:51:26.022Z,9.65
2023-05-12T22:54:28.487Z,9.51
2023-05-12T22:57:30.930Z,9.35
2023-05-12T23:00:33.412Z,9.29
2023-05-12T23:03:35.945Z,9.18
2023-05-12T23:06:38.290Z,9.11
2023-05-12T23:09:40.591Z,9.09
2023-05-12T23:12:43.767Z,8.90
2023-05-12T23:15:46.236Z,9.07
2023-05-12T23:18:49.362Z,9.00
2023-05-12T23:21:52.008Z,8.82
2023-05-12T23:24:55.635Z,8.69
2023-05-12T23:27:58.137Z,8.59
2023-05-12T23:31:00.593Z,8.70
2023-05-12T23:34:02.935Z,8.60
2023-05-12T23:37:05.533Z,8.54
2023-05-12T23:40:08.728Z,8.48
2023-05-12T23:43:11.047Z,8.43
2023-05-12T23:46:13.449Z,8.33
2023-05-12T23:49:16.060Z,8.28
2023-05-12T23:52:18.421Z,8.27
2023-05-12T23:55:23.991Z,8.31
2023-05-12T23:58:26.843Z,8.47
